sensor_id;sensor_type;location;lat;lon;timestamp;P1;durP1;ratioP1;P2;durP2;ratioP2
26536;SDS011;14204;51.262;5.488;2023-05-07T00:01:06;8.40;;;5.97;;
26536;SDS011;14204;51.262;5.488;2023-05-07T00:03:32;6.80;;;6.07;;
26536;SDS011;14204;51.262;5.488;2023-05-07T00:05:58;9.55;;;6.60;;
26536;SDS011;14204;51.262;5.488;2023-05-07T00:08:24;7.18;;;6.45;;
26536;SDS011;14204;51.262;5.488;2023-05-07T00:10:49;7.10;;;5.93;;
26536;SDS011;14204;51.262;5.488;2023-05-07T00:13:16;14.68;;;6.00;;
26536;SDS011;14204;51.262;5.488;2023-05-07T00:15:42;7.85;;;6.28;;
26536;SDS011;14204;51.262;5.488;2023-05-07T00:18:07;8.05;;;6.45;;
26536;SDS011;14204;51.262;5.488;2023-05-07T00:20:33;7.03;;;5.78;;
26536;SDS011;14204;51.262;5.488;2023-05-07T00:22:59;8.65;;;7.72;;
26536;SDS011;14204;51.262;5.488;2023-05-07T00:25:24;9.10;;;6.72;;
26536;SDS011;14204;51.262;5.488;2023-05-07T00:27:50;7.28;;;6.57;;
26536;SDS011;14204;51.262;5.488;2023-05-07T00:30:16;8.45;;;6.68;;
26536;SDS011;14204;51.262;5.488;2023-05-07T00:32:42;8.13;;;6.43;;
26536;SDS011;14204;51.262;5.488;2023-05-07T00:35:10;8.52;;;7.47;;
26536;SDS011;14204;51.262;5.488;2023-05-07T00:37:36;7.82;;;7.05;;
26536;SDS011;14204;51.262;5.488;2023-05-07T00:40:02;8.65;;;6.70;;
26536;SDS011;14204;51.262;5.488;2023-05-07T00:42:32;8.57;;;6.38;;
26536;SDS011;14204;51.262;5.488;2023-05-07T00:44:58;9.35;;;7.03;;
26536;SDS011;14204;51.262;5.488;2023-05-07T00:47:24;7.97;;;7.00;;
26536;SDS011;14204;51.262;5.488;2023-05-07T00:49:50;11.70;;;7.80;;
26536;SDS011;14204;51.262;5.488;2023-05-07T00:52:17;9.75;;;7.30;;
26536;SDS011;14204;51.262;5.488;2023-05-07T00:54:44;9.45;;;7.65;;
26536;SDS011;14204;51.262;5.488;2023-05-07T00:57:11;10.07;;;7.32;;
26536;SDS011;14204;51.262;5.488;2023-05-07T00:59:37;9.02;;;7.03;;
26536;SDS011;14204;51.262;5.488;2023-05-07T01:02:03;7.18;;;6.45;;
26536;SDS011;14204;51.262;5.488;2023-05-07T01:04:28;6.97;;;6.32;;
26536;SDS011;14204;51.262;5.488;2023-05-07T01:06:54;7.25;;;6.32;;
26536;SDS011;14204;51.262;5.488;2023-05-07T01:09:22;9.70;;;7.35;;
26536;SDS011;14204;51.262;5.488;2023-05-07T01:11:49;8.80;;;6.97;;
26536;SDS011;14204;51.262;5.488;2023-05-07T01:14:16;9.25;;;8.38;;
26536;SDS011;14204;51.262;5.488;2023-05-07T01:16:43;11.15;;;8.70;;
26536;SDS011;14204;51.262;5.488;2023-05-07T01:19:09;8.73;;;7.93;;
26536;SDS011;14204;51.262;5.488;2023-05-07T01:21:38;8.18;;;7.18;;
26536;SDS011;14204;51.262;5.488;2023-05-07T01:24:04;9.30;;;7.30;;
26536;SDS011;14204;51.262;5.488;2023-05-07T01:26:30;13.00;;;8.38;;
26536;SDS011;14204;51.262;5.488;2023-05-07T01:28:56;10.15;;;8.20;;
26536;SDS011;14204;51.262;5.488;2023-05-07T01:31:22;8.93;;;8.05;;
26536;SDS011;14204;51.262;5.488;2023-05-07T01:33:49;9.48;;;8.00;;
26536;SDS011;14204;51.262;5.488;2023-05-07T01:36:16;8.88;;;7.85;;
26536;SDS011;14204;51.262;5.488;2023-05-07T01:38:43;10.55;;;8.07;;
26536;SDS011;14204;51.262;5.488;2023-05-07T01:41:11;11.07;;;9.38;;
26536;SDS011;14204;51.262;5.488;2023-05-07T01:43:37;9.23;;;8.32;;
26536;SDS011;14204;51.262;5.488;2023-05-07T01:46:04;9.52;;;8.43;;
26536;SDS011;14204;51.262;5.488;2023-05-07T01:48:31;9.70;;;7.90;;
26536;SDS011;14204;51.262;5.488;2023-05-07T01:50:58;13.50;;;9.20;;
26536;SDS011;14204;51.262;5.488;2023-05-07T01:53:26;13.75;;;9.60;;
26536;SDS011;14204;51.262;5.488;2023-05-07T01:55:53;12.00;;;10.77;;
26536;SDS011;14204;51.262;5.488;2023-05-07T01:58:18;14.77;;;12.45;;
26536;SDS011;14204;51.262;5.488;2023-05-07T02:00:44;13.82;;;12.38;;
26536;SDS011;14204;51.262;5.488;2023-05-07T02:03:10;11.80;;;10.60;;
26536;SDS011;14204;51.262;5.488;2023-05-07T02:05:36;13.23;;;10.10;;
26536;SDS011;14204;51.262;5.488;2023-05-07T02:08:01;11.45;;;7.95;;
26536;SDS011;14204;51.262;5.488;2023-05-07T02:10:27;10.07;;;7.72;;
26536;SDS011;14204;51.262;5.488;2023-05-07T02:12:53;10.45;;;8.38;;
26536;SDS011;14204;51.262;5.488;2023-05-07T02:15:18;10.13;;;7.50;;
26536;SDS011;14204;51.262;5.488;2023-05-07T02:18:00;9.98;;;8.02;;
26536;SDS011;14204;51.262;5.488;2023-05-07T02:20:31;8.82;;;7.88;;
26536;SDS011;14204;51.262;5.488;2023-05-07T02:22:57;11.60;;;10.23;;
26536;SDS011;14204;51.262;5.488;2023-05-07T02:25:23;15.10;;;11.70;;
26536;SDS011;14204;51.262;5.488;2023-05-07T02:27:49;12.40;;;11.07;;
26536;SDS011;14204;51.262;5.488;2023-05-07T02:30:15;14.48;;;12.18;;
26536;SDS011;14204;51.262;5.488;2023-05-07T02:32:40;15.25;;;13.75;;
26536;SDS011;14204;51.262;5.488;2023-05-07T02:35:06;14.30;;;12.82;;
26536;SDS011;14204;51.262;5.488;2023-05-07T02:37:32;12.85;;;11.63;;
26536;SDS011;14204;51.262;5.488;2023-05-07T02:39:58;12.38;;;11.10;;
26536;SDS011;14204;51.262;5.488;2023-05-07T02:42:23;15.75;;;13.73;;
26536;SDS011;14204;51.262;5.488;2023-05-07T02:44:49;15.05;;;13.45;;
26536;SDS011;14204;51.262;5.488;2023-05-07T02:47:15;18.90;;;16.30;;
26536;SDS011;14204;51.262;5.488;2023-05-07T02:49:40;15.32;;;12.73;;
26536;SDS011;14204;51.262;5.488;2023-05-07T02:52:06;15.27;;;13.77;;
26536;SDS011;14204;51.262;5.488;2023-05-07T02:54:32;17.88;;;14.52;;
26536;SDS011;14204;51.262;5.488;2023-05-07T02:56:58;18.33;;;16.08;;
26536;SDS011;14204;51.262;5.488;2023-05-07T02:59:25;22.23;;;17.58;;
26536;SDS011;14204;51.262;5.488;2023-05-07T03:01:51;20.17;;;15.65;;
26536;SDS011;14204;51.262;5.488;2023-05-07T03:04:17;22.25;;;17.55;;
26536;SDS011;14204;51.262;5.488;2023-05-07T03:06:43;16.58;;;14.93;;
26536;SDS011;14204;51.262;5.488;2023-05-07T03:09:08;17.38;;;15.57;;
26536;SDS011;14204;51.262;5.488;2023-05-07T03:11:34;16.58;;;14.77;;
26536;SDS011;14204;51.262;5.488;2023-05-07T03:14:00;20.63;;;17.83;;
26536;SDS011;14204;51.262;5.488;2023-05-07T03:16:26;19.58;;;15.93;;
26536;SDS011;14204;51.262;5.488;2023-05-07T03:18:52;19.55;;;17.45;;
26536;SDS011;14204;51.262;5.488;2023-05-07T03:21:18;24.30;;;18.52;;
26536;SDS011;14204;51.262;5.488;2023-05-07T03:23:44;21.77;;;17.98;;
26536;SDS011;14204;51.262;5.488;2023-05-07T03:26:10;20.13;;;16.75;;
26536;SDS011;14204;51.262;5.488;2023-05-07T03:28:36;17.70;;;15.23;;
26536;SDS011;14204;51.262;5.488;2023-05-07T03:31:02;15.63;;;13.95;;
26536;SDS011;14204;51.262;5.488;2023-05-07T03:33:28;16.90;;;15.20;;
26536;SDS011;14204;51.262;5.488;2023-05-07T03:35:53;17.00;;;14.85;;
26536;SDS011;14204;51.262;5.488;2023-05-07T03:38:19;16.63;;;14.52;;
26536;SDS011;14204;51.262;5.488;2023-05-07T03:40:45;14.85;;;13.20;;
26536;SDS011;14204;51.262;5.488;2023-05-07T03:43:10;15.50;;;13.50;;
26536;SDS011;14204;51.262;5.488;2023-05-07T03:45:36;16.95;;;14.40;;
26536;SDS011;14204;51.262;5.488;2023-05-07T03:48:02;16.48;;;13.82;;
26536;SDS011;14204;51.262;5.488;2023-05-07T03:50:28;17.58;;;13.77;;
26536;SDS011;14204;51.262;5.488;2023-05-07T03:52:53;17.00;;;14.90;;
26536;SDS011;14204;51.262;5.488;2023-05-07T03:55:19;20.80;;;17.77;;
26536;SDS011;14204;51.262;5.488;2023-05-07T03:57:45;18.02;;;16.17;;
26536;SDS011;14204;51.262;5.488;2023-05-07T04:00:11;17.92;;;15.63;;
26536;SDS011;14204;51.262;5.488;2023-05-07T04:02:37;19.95;;;17.30;;
26536;SDS011;14204;51.262;5.488;2023-05-07T04:05:02;20.55;;;16.70;;
26536;SDS011;14204;51.262;5.488;2023-05-07T04:07:28;19.33;;;16.65;;
26536;SDS011;14204;51.262;5.488;2023-05-07T04:09:54;21.10;;;17.42;;
26536;SDS011;14204;51.262;5.488;2023-05-07T04:12:19;20.05;;;17.75;;
26536;SDS011;14204;51.262;5.488;2023-05-07T04:14:45;20.30;;;15.70;;
26536;SDS011;14204;51.262;5.488;2023-05-07T04:17:11;21.90;;;18.05;;
26536;SDS011;14204;51.262;5.488;2023-05-07T04:19:37;20.33;;;18.17;;
26536;SDS011;14204;51.262;5.488;2023-05-07T04:22:02;19.75;;;16.35;;
26536;SDS011;14204;51.262;5.488;2023-05-07T04:24:30;18.48;;;16.52;;
26536;SDS011;14204;51.262;5.488;2023-05-07T04:26:58;23.00;;;20.27;;
26536;SDS011;14204;51.262;5.488;2023-05-07T04:29:23;24.83;;;21.40;;
26536;SDS011;14204;51.262;5.488;2023-05-07T04:31:49;24.25;;;20.80;;
26536;SDS011;14204;51.262;5.488;2023-05-07T04:34:15;23.17;;;19.75;;
26536;SDS011;14204;51.262;5.488;2023-05-07T04:36:41;28.30;;;20.77;;
26536;SDS011;14204;51.262;5.488;2023-05-07T04:39:07;32.83;;;24.83;;
26536;SDS011;14204;51.262;5.488;2023-05-07T04:41:35;40.10;;;30.38;;
26536;SDS011;14204;51.262;5.488;2023-05-07T04:44:01;41.25;;;31.00;;
26536;SDS011;14204;51.262;5.488;2023-05-07T04:46:29;34.78;;;28.20;;
26536;SDS011;14204;51.262;5.488;2023-05-07T04:48:55;32.13;;;24.92;;
26536;SDS011;14204;51.262;5.488;2023-05-07T04:51:21;34.08;;;26.05;;
26536;SDS011;14204;51.262;5.488;2023-05-07T04:53:47;37.80;;;25.95;;
26536;SDS011;14204;51.262;5.488;2023-05-07T04:56:13;27.65;;;22.75;;
26536;SDS011;14204;51.262;5.488;2023-05-07T04:58:39;36.75;;;28.30;;
26536;SDS011;14204;51.262;5.488;2023-05-07T05:01:05;35.53;;;25.50;;
26536;SDS011;14204;51.262;5.488;2023-05-07T05:03:31;33.40;;;25.45;;
26536;SDS011;14204;51.262;5.488;2023-05-07T05:05:56;33.50;;;26.90;;
26536;SDS011;14204;51.262;5.488;2023-05-07T05:08:24;40.20;;;33.13;;
26536;SDS011;14204;51.262;5.488;2023-05-07T05:10:50;37.88;;;28.25;;
26536;SDS011;14204;51.262;5.488;2023-05-07T05:13:16;32.78;;;27.20;;
26536;SDS011;14204;51.262;5.488;2023-05-07T05:15:42;33.88;;;26.15;;
26536;SDS011;14204;51.262;5.488;2023-05-07T05:18:08;35.55;;;29.00;;
26536;SDS011;14204;51.262;5.488;2023-05-07T05:20:34;43.30;;;31.77;;
26536;SDS011;14204;51.262;5.488;2023-05-07T05:22:59;45.50;;;33.58;;
26536;SDS011;14204;51.262;5.488;2023-05-07T05:25:25;42.08;;;31.42;;
26536;SDS011;14204;51.262;5.488;2023-05-07T05:27:51;37.40;;;29.60;;
26536;SDS011;14204;51.262;5.488;2023-05-07T05:30:17;53.65;;;36.60;;
26536;SDS011;14204;51.262;5.488;2023-05-07T05:32:42;40.00;;;30.27;;
26536;SDS011;14204;51.262;5.488;2023-05-07T05:35:08;47.28;;;34.05;;
26536;SDS011;14204;51.262;5.488;2023-05-07T05:37:34;43.53;;;35.30;;
26536;SDS011;14204;51.262;5.488;2023-05-07T05:39:59;50.90;;;39.28;;
26536;SDS011;14204;51.262;5.488;2023-05-07T05:42:25;38.28;;;30.65;;
26536;SDS011;14204;51.262;5.488;2023-05-07T05:44:50;46.40;;;34.22;;
26536;SDS011;14204;51.262;5.488;2023-05-07T05:47:16;38.92;;;31.25;;
26536;SDS011;14204;51.262;5.488;2023-05-07T05:49:42;37.53;;;30.23;;
26536;SDS011;14204;51.262;5.488;2023-05-07T05:52:08;46.90;;;31.85;;
26536;SDS011;14204;51.262;5.488;2023-05-07T05:54:34;38.72;;;28.55;;
26536;SDS011;14204;51.262;5.488;2023-05-07T05:57:00;42.47;;;31.80;;
26536;SDS011;14204;51.262;5.488;2023-05-07T05:59:29;47.17;;;33.25;;
26536;SDS011;14204;51.262;5.488;2023-05-07T06:01:54;46.35;;;34.80;;
26536;SDS011;14204;51.262;5.488;2023-05-07T06:04:20;43.50;;;33.15;;
26536;SDS011;14204;51.262;5.488;2023-05-07T06:06:46;48.17;;;33.97;;
26536;SDS011;14204;51.262;5.488;2023-05-07T06:09:11;41.40;;;33.92;;
26536;SDS011;14204;51.262;5.488;2023-05-07T06:11:37;44.17;;;33.53;;
26536;SDS011;14204;51.262;5.488;2023-05-07T06:14:03;47.85;;;36.65;;
26536;SDS011;14204;51.262;5.488;2023-05-07T06:16:28;49.25;;;36.25;;
26536;SDS011;14204;51.262;5.488;2023-05-07T06:18:54;50.03;;;37.67;;
26536;SDS011;14204;51.262;5.488;2023-05-07T06:21:20;38.95;;;30.63;;
26536;SDS011;14204;51.262;5.488;2023-05-07T06:23:46;36.72;;;30.25;;
26536;SDS011;14204;51.262;5.488;2023-05-07T06:26:12;33.22;;;27.35;;
26536;SDS011;14204;51.262;5.488;2023-05-07T06:28:37;34.72;;;27.65;;
26536;SDS011;14204;51.262;5.488;2023-05-07T06:31:13;34.75;;;27.83;;
26536;SDS011;14204;51.262;5.488;2023-05-07T06:33:39;29.20;;;25.52;;
26536;SDS011;14204;51.262;5.488;2023-05-07T06:36:05;34.72;;;25.45;;
26536;SDS011;14204;51.262;5.488;2023-05-07T06:38:31;34.15;;;26.90;;
26536;SDS011;14204;51.262;5.488;2023-05-07T06:40:57;30.02;;;26.67;;
26536;SDS011;14204;51.262;5.488;2023-05-07T06:43:23;29.00;;;24.90;;
26536;SDS011;14204;51.262;5.488;2023-05-07T06:45:48;26.33;;;22.95;;
26536;SDS011;14204;51.262;5.488;2023-05-07T06:48:14;27.52;;;23.67;;
26536;SDS011;14204;51.262;5.488;2023-05-07T06:50:40;29.73;;;26.05;;
26536;SDS011;14204;51.262;5.488;2023-05-07T06:53:06;31.60;;;26.38;;
26536;SDS011;14204;51.262;5.488;2023-05-07T06:55:32;28.33;;;23.27;;
26536;SDS011;14204;51.262;5.488;2023-05-07T06:57:58;31.73;;;25.20;;
26536;SDS011;14204;51.262;5.488;2023-05-07T07:00:26;32.78;;;25.75;;
26536;SDS011;14204;51.262;5.488;2023-05-07T07:02:54;31.00;;;23.52;;
26536;SDS011;14204;51.262;5.488;2023-05-07T07:05:20;28.50;;;24.13;;
26536;SDS011;14204;51.262;5.488;2023-05-07T07:07:46;29.20;;;25.65;;
26536;SDS011;14204;51.262;5.488;2023-05-07T07:10:18;30.08;;;24.40;;
26536;SDS011;14204;51.262;5.488;2023-05-07T07:12:45;30.77;;;24.25;;
26536;SDS011;14204;51.262;5.488;2023-05-07T07:15:11;24.33;;;19.92;;
26536;SDS011;14204;51.262;5.488;2023-05-07T07:17:42;30.55;;;25.42;;
26536;SDS011;14204;51.262;5.488;2023-05-07T07:20:12;27.98;;;24.33;;
26536;SDS011;14204;51.262;5.488;2023-05-07T07:22:38;28.10;;;23.55;;
26536;SDS011;14204;51.262;5.488;2023-05-07T07:25:03;29.08;;;22.65;;
26536;SDS011;14204;51.262;5.488;2023-05-07T07:27:29;30.10;;;23.63;;
26536;SDS011;14204;51.262;5.488;2023-05-07T07:29:55;29.23;;;24.25;;
26536;SDS011;14204;51.262;5.488;2023-05-07T07:32:21;35.75;;;27.65;;
26536;SDS011;14204;51.262;5.488;2023-05-07T07:34:46;36.03;;;26.30;;
26536;SDS011;14204;51.262;5.488;2023-05-07T07:37:12;30.48;;;25.27;;
26536;SDS011;14204;51.262;5.488;2023-05-07T07:39:38;31.90;;;24.45;;
26536;SDS011;14204;51.262;5.488;2023-05-07T07:42:03;32.22;;;24.63;;
26536;SDS011;14204;51.262;5.488;2023-05-07T07:44:29;26.45;;;23.58;;
26536;SDS011;14204;51.262;5.488;2023-05-07T07:46:55;31.10;;;24.27;;
26536;SDS011;14204;51.262;5.488;2023-05-07T07:49:21;27.73;;;21.73;;
26536;SDS011;14204;51.262;5.488;2023-05-07T07:51:46;29.13;;;24.45;;
26536;SDS011;14204;51.262;5.488;2023-05-07T07:54:12;29.23;;;23.50;;
26536;SDS011;14204;51.262;5.488;2023-05-07T07:56:38;28.17;;;24.17;;
26536;SDS011;14204;51.262;5.488;2023-05-07T07:59:03;30.25;;;23.83;;
26536;SDS011;14204;51.262;5.488;2023-05-07T08:01:30;26.63;;;23.13;;
26536;SDS011;14204;51.262;5.488;2023-05-07T08:03:56;26.55;;;21.85;;
26536;SDS011;14204;51.262;5.488;2023-05-07T08:06:23;24.83;;;22.17;;
26536;SDS011;14204;51.262;5.488;2023-05-07T08:08:50;30.52;;;25.23;;
26536;SDS011;14204;51.262;5.488;2023-05-07T08:11:16;29.75;;;24.40;;
26536;SDS011;14204;51.262;5.488;2023-05-07T08:13:49;32.20;;;23.23;;
26536;SDS011;14204;51.262;5.488;2023-05-07T08:16:15;28.10;;;22.73;;
26536;SDS011;14204;51.262;5.488;2023-05-07T08:18:41;33.88;;;25.38;;
26536;SDS011;14204;51.262;5.488;2023-05-07T08:21:07;32.47;;;23.23;;
26536;SDS011;14204;51.262;5.488;2023-05-07T08:23:33;24.80;;;22.15;;
26536;SDS011;14204;51.262;5.488;2023-05-07T08:25:59;26.25;;;20.95;;
26536;SDS011;14204;51.262;5.488;2023-05-07T08:28:25;28.55;;;21.70;;
26536;SDS011;14204;51.262;5.488;2023-05-07T08:30:51;29.45;;;21.55;;
26536;SDS011;14204;51.262;5.488;2023-05-07T08:33:17;21.55;;;17.90;;
26536;SDS011;14204;51.262;5.488;2023-05-07T08:35:42;21.88;;;17.50;;
26536;SDS011;14204;51.262;5.488;2023-05-07T08:38:08;23.33;;;16.75;;
26536;SDS011;14204;51.262;5.488;2023-05-07T08:40:37;20.15;;;17.42;;
26536;SDS011;14204;51.262;5.488;2023-05-07T08:43:06;19.77;;;16.13;;
26536;SDS011;14204;51.262;5.488;2023-05-07T08:45:32;25.23;;;18.15;;
26536;SDS011;14204;51.262;5.488;2023-05-07T08:47:59;18.15;;;14.90;;
26536;SDS011;14204;51.262;5.488;2023-05-07T08:50:28;19.42;;;16.17;;
26536;SDS011;14204;51.262;5.488;2023-05-07T08:52:55;18.75;;;14.65;;
26536;SDS011;14204;51.262;5.488;2023-05-07T08:55:22;20.65;;;16.17;;
26536;SDS011;14204;51.262;5.488;2023-05-07T08:57:50;16.73;;;14.75;;
26536;SDS011;14204;51.262;5.488;2023-05-07T09:00:17;17.45;;;14.73;;
26536;SDS011;14204;51.262;5.488;2023-05-07T09:02:43;19.13;;;14.45;;
26536;SDS011;14204;51.262;5.488;2023-05-07T09:05:09;17.27;;;15.48;;
26536;SDS011;14204;51.262;5.488;2023-05-07T09:07:35;23.92;;;20.60;;
26536;SDS011;14204;51.262;5.488;2023-05-07T09:10:02;17.17;;;15.27;;
26536;SDS011;14204;51.262;5.488;2023-05-07T09:12:29;19.02;;;14.32;;
26536;SDS011;14204;51.262;5.488;2023-05-07T09:14:55;17.00;;;14.23;;
26536;SDS011;14204;51.262;5.488;2023-05-07T09:17:20;15.35;;;13.13;;
26536;SDS011;14204;51.262;5.488;2023-05-07T09:19:46;14.63;;;10.60;;
26536;SDS011;14204;51.262;5.488;2023-05-07T09:22:12;15.70;;;13.23;;
26536;SDS011;14204;51.262;5.488;2023-05-07T09:24:38;14.55;;;10.88;;
26536;SDS011;14204;51.262;5.488;2023-05-07T09:27:04;15.95;;;10.93;;
26536;SDS011;14204;51.262;5.488;2023-05-07T09:29:31;12.73;;;10.98;;
26536;SDS011;14204;51.262;5.488;2023-05-07T09:32:03;12.98;;;9.48;;
26536;SDS011;14204;51.262;5.488;2023-05-07T09:34:33;11.60;;;9.93;;
26536;SDS011;14204;51.262;5.488;2023-05-07T09:37:02;16.83;;;11.43;;
26536;SDS011;14204;51.262;5.488;2023-05-07T09:39:39;15.35;;;11.23;;
26536;SDS011;14204;51.262;5.488;2023-05-07T09:42:08;14.50;;;11.57;;
26536;SDS011;14204;51.262;5.488;2023-05-07T09:44:35;13.32;;;11.70;;
26536;SDS011;14204;51.262;5.488;2023-05-07T09:47:01;13.18;;;11.77;;
26536;SDS011;14204;51.262;5.488;2023-05-07T09:49:31;10.90;;;9.77;;
26536;SDS011;14204;51.262;5.488;2023-05-07T09:52:00;8.85;;;7.95;;
26536;SDS011;14204;51.262;5.488;2023-05-07T09:54:27;11.77;;;9.10;;
26536;SDS011;14204;51.262;5.488;2023-05-07T09:56:56;12.10;;;8.95;;
26536;SDS011;14204;51.262;5.488;2023-05-07T09:59:23;9.45;;;7.85;;
26536;SDS011;14204;51.262;5.488;2023-05-07T10:01:50;10.27;;;8.48;;
26536;SDS011;14204;51.262;5.488;2023-05-07T10:04:18;7.50;;;6.00;;
26536;SDS011;14204;51.262;5.488;2023-05-07T10:06:45;8.40;;;7.55;;
26536;SDS011;14204;51.262;5.488;2023-05-07T10:09:12;7.47;;;5.40;;
26536;SDS011;14204;51.262;5.488;2023-05-07T10:11:38;8.13;;;4.82;;
26536;SDS011;14204;51.262;5.488;2023-05-07T10:14:05;9.23;;;5.80;;
26536;SDS011;14204;51.262;5.488;2023-05-07T10:16:32;8.20;;;5.47;;
26536;SDS011;14204;51.262;5.488;2023-05-07T10:19:04;8.05;;;7.20;;
26536;SDS011;14204;51.262;5.488;2023-05-07T10:21:30;9.75;;;7.13;;
26536;SDS011;14204;51.262;5.488;2023-05-07T10:24:05;10.63;;;7.75;;
26536;SDS011;14204;51.262;5.488;2023-05-07T10:26:40;9.02;;;6.80;;
26536;SDS011;14204;51.262;5.488;2023-05-07T10:29:15;9.27;;;7.20;;
26536;SDS011;14204;51.262;5.488;2023-05-07T10:32:15;8.43;;;6.38;;
26536;SDS011;14204;51.262;5.488;2023-05-07T10:34:58;9.85;;;7.55;;
26536;SDS011;14204;51.262;5.488;2023-05-07T10:37:28;10.73;;;7.22;;
26536;SDS011;14204;51.262;5.488;2023-05-07T10:39:54;8.52;;;7.50;;
26536;SDS011;14204;51.262;5.488;2023-05-07T10:42:20;12.88;;;8.25;;
26536;SDS011;14204;51.262;5.488;2023-05-07T10:44:45;8.13;;;7.30;;
26536;SDS011;14204;51.262;5.488;2023-05-07T10:47:12;9.27;;;6.65;;
26536;SDS011;14204;51.262;5.488;2023-05-07T10:52:13;10.40;;;7.03;;
26536;SDS011;14204;51.262;5.488;2023-05-07T10:54:41;6.45;;;5.75;;
26536;SDS011;14204;51.262;5.488;2023-05-07T10:59:56;5.70;;;4.57;;
26536;SDS011;14204;51.262;5.488;2023-05-07T11:02:21;5.82;;;4.50;;
26536;SDS011;14204;51.262;5.488;2023-05-07T11:07:55;8.38;;;4.43;;
26536;SDS011;14204;51.262;5.488;2023-05-07T11:13:17;6.63;;;4.03;;
26536;SDS011;14204;51.262;5.488;2023-05-07T11:15:44;8.65;;;5.00;;
26536;SDS011;14204;51.262;5.488;2023-05-07T11:18:12;8.10;;;5.30;;
26536;SDS011;14204;51.262;5.488;2023-05-07T11:26:08;5.82;;;3.30;;
26536;SDS011;14204;51.262;5.488;2023-05-07T11:28:36;6.20;;;2.88;;
26536;SDS011;14204;51.262;5.488;2023-05-07T11:31:06;5.97;;;2.90;;
26536;SDS011;14204;51.262;5.488;2023-05-07T11:33:33;6.80;;;3.20;;
26536;SDS011;14204;51.262;5.488;2023-05-07T11:36:00;4.93;;;3.05;;
26536;SDS011;14204;51.262;5.488;2023-05-07T11:38:28;4.45;;;3.42;;
26536;SDS011;14204;51.262;5.488;2023-05-07T11:40:57;5.43;;;2.80;;
26536;SDS011;14204;51.262;5.488;2023-05-07T11:43:26;6.88;;;3.22;;
26536;SDS011;14204;51.262;5.488;2023-05-07T11:45:52;7.88;;;5.88;;
26536;SDS011;14204;51.262;5.488;2023-05-07T11:48:18;7.65;;;5.00;;
26536;SDS011;14204;51.262;5.488;2023-05-07T11:50:53;9.63;;;3.92;;
26536;SDS011;14204;51.262;5.488;2023-05-07T11:53:25;7.82;;;4.25;;
26536;SDS011;14204;51.262;5.488;2023-05-07T11:55:57;5.63;;;3.42;;
26536;SDS011;14204;51.262;5.488;2023-05-07T11:58:24;8.43;;;3.13;;
26536;SDS011;14204;51.262;5.488;2023-05-07T12:00:53;10.48;;;4.00;;
26536;SDS011;14204;51.262;5.488;2023-05-07T12:03:19;13.43;;;5.05;;
26536;SDS011;14204;51.262;5.488;2023-05-07T12:05:46;8.50;;;4.30;;
26536;SDS011;14204;51.262;5.488;2023-05-07T12:08:16;8.13;;;3.97;;
26536;SDS011;14204;51.262;5.488;2023-05-07T12:10:42;20.75;;;11.55;;
26536;SDS011;14204;51.262;5.488;2023-05-07T12:15:41;14.32;;;8.38;;
26536;SDS011;14204;51.262;5.488;2023-05-07T12:18:07;16.67;;;6.68;;
26536;SDS011;14204;51.262;5.488;2023-05-07T12:20:34;10.32;;;5.50;;
26536;SDS011;14204;51.262;5.488;2023-05-07T12:23:01;9.52;;;6.03;;
26536;SDS011;14204;51.262;5.488;2023-05-07T12:25:29;15.15;;;4.80;;
26536;SDS011;14204;51.262;5.488;2023-05-07T12:27:57;6.00;;;3.58;;
26536;SDS011;14204;51.262;5.488;2023-05-07T12:30:25;10.23;;;5.03;;
26536;SDS011;14204;51.262;5.488;2023-05-07T12:32:54;10.90;;;5.22;;
26536;SDS011;14204;51.262;5.488;2023-05-07T12:35:53;9.90;;;4.93;;
26536;SDS011;14204;51.262;5.488;2023-05-07T12:38:13;6.95;;;4.20;;
26536;SDS011;14204;51.262;5.488;2023-05-07T12:40:42;6.53;;;4.35;;
26536;SDS011;14204;51.262;5.488;2023-05-07T12:43:15;9.27;;;4.40;;
26536;SDS011;14204;51.262;5.488;2023-05-07T12:45:42;7.30;;;3.58;;
26536;SDS011;14204;51.262;5.488;2023-05-07T12:48:09;6.05;;;4.13;;
26536;SDS011;14204;51.262;5.488;2023-05-07T12:50:35;7.95;;;4.65;;
26536;SDS011;14204;51.262;5.488;2023-05-07T12:53:03;5.57;;;4.50;;
26536;SDS011;14204;51.262;5.488;2023-05-07T12:55:31;5.20;;;3.30;;
26536;SDS011;14204;51.262;5.488;2023-05-07T12:57:57;6.75;;;3.88;;
26536;SDS011;14204;51.262;5.488;2023-05-07T13:00:34;4.45;;;3.58;;
26536;SDS011;14204;51.262;5.488;2023-05-07T13:03:04;5.88;;;4.43;;
26536;SDS011;14204;51.262;5.488;2023-05-07T13:05:30;4.10;;;3.42;;
26536;SDS011;14204;51.262;5.488;2023-05-07T13:07:57;4.18;;;3.55;;
26536;SDS011;14204;51.262;5.488;2023-05-07T13:10:23;5.47;;;4.90;;
26536;SDS011;14204;51.262;5.488;2023-05-07T13:12:50;5.88;;;3.88;;
26536;SDS011;14204;51.262;5.488;2023-05-07T13:15:16;6.25;;;4.25;;
26536;SDS011;14204;51.262;5.488;2023-05-07T13:17:42;5.53;;;4.57;;
26536;SDS011;14204;51.262;5.488;2023-05-07T13:20:11;10.32;;;5.13;;
26536;SDS011;14204;51.262;5.488;2023-05-07T13:22:38;6.47;;;5.32;;
26536;SDS011;14204;51.262;5.488;2023-05-07T13:25:05;7.05;;;5.88;;
26536;SDS011;14204;51.262;5.488;2023-05-07T13:27:31;6.22;;;5.63;;
26536;SDS011;14204;51.262;5.488;2023-05-07T13:29:57;9.18;;;6.18;;
26536;SDS011;14204;51.262;5.488;2023-05-07T13:32:23;7.78;;;6.95;;
26536;SDS011;14204;51.262;5.488;2023-05-07T13:34:48;11.77;;;7.07;;
26536;SDS011;14204;51.262;5.488;2023-05-07T13:37:14;8.40;;;6.95;;
26536;SDS011;14204;51.262;5.488;2023-05-07T13:39:40;10.95;;;7.97;;
26536;SDS011;14204;51.262;5.488;2023-05-07T13:42:09;16.65;;;13.80;;
26536;SDS011;14204;51.262;5.488;2023-05-07T13:44:35;18.90;;;15.40;;
26536;SDS011;14204;51.262;5.488;2023-05-07T13:47:00;19.35;;;17.35;;
26536;SDS011;14204;51.262;5.488;2023-05-07T13:49:26;23.75;;;16.70;;
26536;SDS011;14204;51.262;5.488;2023-05-07T13:51:52;16.92;;;12.25;;
26536;SDS011;14204;51.262;5.488;2023-05-07T13:54:18;5.50;;;3.33;;
26536;SDS011;14204;51.262;5.488;2023-05-07T13:56:44;3.78;;;3.47;;
26536;SDS011;14204;51.262;5.488;2023-05-07T13:59:10;6.55;;;3.90;;
26536;SDS011;14204;51.262;5.488;2023-05-07T14:01:35;5.80;;;4.88;;
26536;SDS011;14204;51.262;5.488;2023-05-07T14:04:01;10.88;;;5.85;;
26536;SDS011;14204;51.262;5.488;2023-05-07T14:06:27;10.35;;;5.55;;
26536;SDS011;14204;51.262;5.488;2023-05-07T14:08:52;8.82;;;7.93;;
26536;SDS011;14204;51.262;5.488;2023-05-07T14:11:18;10.25;;;8.15;;
26536;SDS011;14204;51.262;5.488;2023-05-07T14:13:44;12.00;;;8.25;;
26536;SDS011;14204;51.262;5.488;2023-05-07T14:16:09;13.00;;;8.05;;
26536;SDS011;14204;51.262;5.488;2023-05-07T14:18:35;13.18;;;9.05;;
26536;SDS011;14204;51.262;5.488;2023-05-07T14:21:02;8.10;;;6.53;;
26536;SDS011;14204;51.262;5.488;2023-05-07T14:23:31;8.38;;;6.40;;
26536;SDS011;14204;51.262;5.488;2023-05-07T14:25:56;10.95;;;6.05;;
26536;SDS011;14204;51.262;5.488;2023-05-07T14:28:23;9.80;;;6.32;;
26536;SDS011;14204;51.262;5.488;2023-05-07T14:30:49;8.73;;;6.40;;
26536;SDS011;14204;51.262;5.488;2023-05-07T14:33:14;7.53;;;6.82;;
26536;SDS011;14204;51.262;5.488;2023-05-07T14:35:40;9.25;;;6.95;;
26536;SDS011;14204;51.262;5.488;2023-05-07T14:38:06;8.15;;;7.18;;
26536;SDS011;14204;51.262;5.488;2023-05-07T14:40:32;13.05;;;8.52;;
26536;SDS011;14204;51.262;5.488;2023-05-07T14:42:57;15.85;;;9.77;;
26536;SDS011;14204;51.262;5.488;2023-05-07T14:45:23;13.75;;;10.77;;
26536;SDS011;14204;51.262;5.488;2023-05-07T14:47:49;11.38;;;10.18;;